Weather History for Winona, MN

Change the Weather History Date:

Monday, January 21, 2013

  Actual Average Record
Temperature  
Mean Temperature 0 °F -  
Max Temperature 5 °F 27 °F 44 °F (1997)
Min Temperature -4 °F 8 °F -18 °F (2000)
Degree Days  
Heating Degree Days 64    
Moisture  
Dew Point -13 °F    
Average Humidity 59    
Maximum Humidity 66    
Minimum Humidity 51    
Precipitation  
Precipitation 0.00 in - - ()
Sea Level Pressure  
Sea Level Pressure 30.29 in    
Wind  
Wind Speed 12 mph (WNW)    
Max Wind Speed 17 mph    
Max Gust Speed 23 mph    
Visibility 9 miles    
Events      
Averages and records for this station are not official NWS values.
T = Trace of Precipitation, MM = Missing Value Source: NWS Daily Summary

Daily Weather History Graph

Daily Weather History Graph

Search for Another Location

Airport:

Trip Planner

Search our weather history database for the weather conditions in past years. The results will help you decide how hot, cold, wet, or windy it might be!

Date:

Astronomy

Jan. 21, 2013 Rise Set
Actual Time 7:34 AM CST 5:02 PM CST
Civil Twilight 7:02 AM CST 5:34 PM CST
Nautical Twilight 6:27 AM CST 6:09 PM CST
Astronomical Twilight 5:53 AM CST 6:43 PM CST
Moon 12:41 PM CST (1/21) 3:03 AM CST (1/21)
Length of Visible Light 10h 31m
Length of Day
9h 27m
Waxing Gibbous, 75% of the Moon is Illuminated
Jan 21
Waxing Gibbous
Jan 26
Full
Feb 3
Last Quarter
Feb 10
New
Feb 17
First Quarter

Hourly Weather History & Observations

Time (CST) Temp. Windchill Dew Point Humidity Pressure Visibility Wind Dir Wind Speed Gust Speed Precip Events Conditions
12:15 AM 5.0 °F -13.6 °F -7.6 °F 56% 30.24 in 10.0 mi WNW 16.1 mph 21.9 mph N/A   Scattered Clouds
12:34 AM 3.2 °F -14.6 °F -7.6 °F 61% 30.24 in 10.0 mi WNW 13.8 mph 21.9 mph N/A   Clear
12:54 AM 3.2 °F -13.1 °F -7.6 °F 61% 30.24 in 10.0 mi WNW 11.5 mph - N/A   Scattered Clouds
1:15 AM 3.2 °F -12.2 °F -7.6 °F 61% 30.23 in 10.0 mi WNW 10.4 mph - N/A   Scattered Clouds
1:34 AM 3.2 °F -10.3 °F -7.6 °F 61% 30.24 in 7.0 mi WNW 8.1 mph 15.0 mph N/A   Overcast
1:54 AM 3.2 °F -13.1 °F -5.8 °F 66% 30.24 in 10.0 mi WNW 11.5 mph - N/A   Overcast
2:15 AM 1.4 °F -16.9 °F -7.6 °F 66% 30.25 in 10.0 mi NW 13.8 mph 18.4 mph N/A   Mostly Cloudy
2:34 AM 1.4 °F -15.3 °F -7.6 °F 66% 30.25 in 7.0 mi WNW 11.5 mph 19.6 mph N/A   Overcast
2:54 AM 1.4 °F -16.1 °F -7.6 °F 66% 30.25 in 10.0 mi WNW 12.7 mph - N/A   Mostly Cloudy
3:14 AM 1.4 °F -15.3 °F -9.4 °F 61% 30.26 in 10.0 mi WNW 11.5 mph 17.3 mph N/A   Scattered Clouds
3:34 AM -0.4 °F -19.2 °F -9.4 °F 66% 30.26 in 10.0 mi WNW 13.8 mph 20.7 mph N/A   Scattered Clouds
3:55 AM -0.4 °F -19.2 °F -11.2 °F 60% 30.26 in 10.0 mi WNW 13.8 mph 20.7 mph N/A   Scattered Clouds
4:14 AM -0.4 °F -18.4 °F -9.4 °F 66% 30.26 in 10.0 mi WNW 12.7 mph 19.6 mph N/A   Overcast
4:55 AM -0.4 °F -19.2 °F -11.2 °F 60% 30.26 in 10.0 mi WNW 13.8 mph 20.7 mph N/A   Scattered Clouds
5:14 AM -0.4 °F -20.5 °F -11.2 °F 60% 30.26 in 10.0 mi WNW 16.1 mph 23.0 mph N/A   Clear
5:34 AM -0.4 °F -17.6 °F -11.2 °F 60% 30.26 in 10.0 mi WNW 11.5 mph 18.4 mph N/A   Scattered Clouds
5:55 AM -0.4 °F -19.2 °F -11.2 °F 60% 30.26 in 5.0 mi WNW 13.8 mph 19.6 mph N/A   Haze
6:14 AM -0.4 °F -17.6 °F -11.2 °F 60% 30.27 in 10.0 mi WNW 11.5 mph 19.6 mph N/A   Mostly Cloudy
6:34 AM -4.0 °F -22.1 °F -13.0 °F 65% 30.27 in 10.0 mi WNW 11.5 mph 18.4 mph N/A   Scattered Clouds
6:55 AM -4.0 °F -23.7 °F -14.8 °F 60% 30.27 in 10.0 mi NW 13.8 mph 19.6 mph N/A   Clear
7:14 AM -4.0 °F -22.1 °F -14.8 °F 60% 30.27 in 10.0 mi WNW 11.5 mph 19.6 mph N/A   Clear
7:35 AM -4.0 °F -22.1 °F -14.8 °F 60% 30.27 in 10.0 mi WNW 11.5 mph - N/A   Scattered Clouds
7:54 AM -4.0 °F -25.8 °F -13.0 °F 65% 30.28 in 10.0 mi WNW 17.3 mph 20.7 mph N/A   Scattered Clouds
8:14 AM -4.0 °F -23.7 °F -14.8 °F 60% 30.29 in 10.0 mi WNW 13.8 mph 20.7 mph N/A   Scattered Clouds
8:35 AM -4.0 °F -24.5 °F -14.8 °F 60% 30.30 in 7.0 mi WNW 15.0 mph 19.6 mph N/A   Scattered Clouds
8:54 AM -4.0 °F -23.0 °F -14.8 °F 60% 30.31 in 10.0 mi WNW 12.7 mph 19.6 mph N/A   Scattered Clouds
9:14 AM -4.0 °F -21.2 °F -14.8 °F 60% 30.32 in 5.0 mi WNW 10.4 mph 18.4 mph N/A   Haze
9:35 AM -4.0 °F -25.2 °F -14.8 °F 60% 30.33 in 7.0 mi NW 16.1 mph 21.9 mph N/A   Mostly Cloudy
9:54 AM -4.0 °F -23.0 °F -14.8 °F 60% 30.32 in 10.0 mi WNW 12.7 mph - N/A   Mostly Cloudy
10:14 AM -4.0 °F -21.2 °F -14.8 °F 60% 30.33 in 10.0 mi WNW 10.4 mph 18.4 mph N/A   Overcast
10:35 AM -2.2 °F -21.5 °F -14.8 °F 55% 30.34 in 10.0 mi WNW 13.8 mph 18.4 mph N/A   Mostly Cloudy
10:54 AM -2.2 °F -19.9 °F -14.8 °F 55% 30.34 in 10.0 mi NW 11.5 mph - N/A   Overcast
11:14 AM -2.2 °F -19.9 °F -14.8 °F 55% 30.33 in 7.0 mi NW 11.5 mph 17.3 mph N/A   Overcast
11:35 AM -0.4 °F -18.4 °F -14.8 °F 51% 30.33 in 10.0 mi NW 12.7 mph - N/A   Overcast
11:54 AM -0.4 °F -19.2 °F -14.8 °F 51% 30.32 in 7.0 mi WNW 13.8 mph - N/A   Overcast
12:14 PM -0.4 °F -19.2 °F -14.8 °F 51% 30.31 in 7.0 mi WNW 13.8 mph 17.3 mph N/A   Overcast
12:35 PM -0.4 °F -14.7 °F -14.8 °F 51% 30.30 in 10.0 mi West 8.1 mph 16.1 mph N/A   Overcast
12:54 PM -0.4 °F -16.7 °F -14.8 °F 51% 30.30 in 7.0 mi WNW 10.4 mph 17.3 mph N/A   Overcast
1:14 PM -0.4 °F -18.4 °F -14.8 °F 51% 30.29 in 5.0 mi WNW 12.7 mph 16.1 mph N/A   Haze
1:35 PM -0.4 °F -19.2 °F -14.8 °F 51% 30.28 in 7.0 mi WNW 13.8 mph - N/A   Overcast
1:54 PM -0.4 °F -17.6 °F -14.8 °F 51% 30.28 in 10.0 mi WNW 11.5 mph 18.4 mph N/A   Overcast
2:14 PM -0.4 °F -19.2 °F -13.0 °F 55% 30.27 in 10.0 mi NW 13.8 mph 18.4 mph N/A   Overcast
2:34 PM -0.4 °F -18.4 °F -13.0 °F 55% 30.27 in 7.0 mi NW 12.7 mph 17.3 mph N/A   Overcast
2:54 PM 1.4 °F -13.5 °F -13.0 °F 51% 30.27 in 10.0 mi West 9.2 mph - N/A   Overcast
3:14 PM -0.4 °F -18.4 °F -14.8 °F 51% 30.28 in 10.0 mi NW 12.7 mph 20.7 mph N/A   Mostly Cloudy
3:34 PM 1.4 °F -14.5 °F -13.0 °F 51% 30.27 in 10.0 mi WNW 10.4 mph 17.3 mph N/A   Mostly Cloudy
3:55 PM -0.4 °F -14.7 °F -13.0 °F 55% 30.27 in 10.0 mi WNW 8.1 mph - N/A   Overcast
4:15 PM -0.4 °F -17.6 °F -14.8 °F 51% 30.27 in 10.0 mi WNW 11.5 mph 17.3 mph N/A   Mostly Cloudy
4:34 PM -0.4 °F -18.4 °F -14.8 °F 51% 30.27 in 10.0 mi WNW 12.7 mph 16.1 mph N/A   Scattered Clouds
4:55 PM -0.4 °F -15.7 °F -13.0 °F 55% 30.27 in 10.0 mi WNW 9.2 mph - N/A   Clear
5:14 PM -0.4 °F -14.7 °F -13.0 °F 55% 30.27 in 10.0 mi WNW 8.1 mph - N/A   Clear
5:34 PM -0.4 °F -14.7 °F -13.0 °F 55% 30.27 in 10.0 mi WNW 8.1 mph - N/A   Clear
5:55 PM -0.4 °F -16.7 °F -13.0 °F 55% 30.28 in 10.0 mi WNW 10.4 mph - N/A   Clear
6:15 PM -0.4 °F -16.7 °F -13.0 °F 55% 30.28 in 10.0 mi WNW 10.4 mph - N/A   Scattered Clouds
6:34 PM -0.4 °F -15.7 °F -13.0 °F 55% 30.29 in 10.0 mi WNW 9.2 mph - N/A   Clear
6:55 PM -0.4 °F -16.7 °F -9.4 °F 66% 30.29 in 7.0 mi WNW 10.4 mph - N/A   Scattered Clouds
7:15 PM -0.4 °F -17.6 °F -11.2 °F 60% 30.30 in 10.0 mi WNW 11.5 mph 16.1 mph N/A   Scattered Clouds
7:34 PM -0.4 °F -20.5 °F -13.0 °F 55% 30.30 in 10.0 mi NW 16.1 mph 20.7 mph N/A   Scattered Clouds
7:55 PM -0.4 °F -19.2 °F -13.0 °F 55% 30.30 in 10.0 mi NW 13.8 mph - N/A   Clear
8:15 PM -0.4 °F -19.2 °F -13.0 °F 55% 30.30 in 10.0 mi NW 13.8 mph - N/A   Scattered Clouds
8:34 PM -2.2 °F -20.7 °F -13.0 °F 60% 30.31 in 10.0 mi NW 12.7 mph - N/A   Scattered Clouds
8:55 PM -2.2 °F -19.9 °F -13.0 °F 60% 30.31 in 10.0 mi WNW 11.5 mph 17.3 mph N/A   Scattered Clouds
9:15 PM -4.0 °F -22.1 °F -13.0 °F 65% 30.32 in 10.0 mi NW 11.5 mph 17.3 mph N/A   Scattered Clouds
9:34 PM -4.0 °F -22.1 °F -13.0 °F 65% 30.32 in 10.0 mi NW 11.5 mph - N/A   Scattered Clouds
9:54 PM -4.0 °F -21.2 °F -13.0 °F 65% 30.32 in 10.0 mi NW 10.4 mph - N/A   Mostly Cloudy
10:15 PM -4.0 °F -21.2 °F -13.0 °F 65% 30.32 in 10.0 mi NW 10.4 mph - N/A   Mostly Cloudy
10:34 PM -4.0 °F -20.2 °F -13.0 °F 65% 30.32 in 10.0 mi NW 9.2 mph - N/A   Scattered Clouds
10:54 PM -4.0 °F -20.2 °F -13.0 °F 65% 30.32 in 10.0 mi NW 9.2 mph - N/A   Clear
11:15 PM -4.0 °F -19.0 °F -13.0 °F 65% 30.32 in 10.0 mi NW 8.1 mph - N/A   Clear
11:34 PM -4.0 °F -19.0 °F -13.0 °F 65% 30.32 in 10.0 mi NW 8.1 mph - N/A   Clear
11:54 PM -4.0 °F -16.3 °F -13.0 °F 65% 30.32 in 10.0 mi WNW 5.8 mph - N/A   Clear